Thunder radar more information blitzortung!


Radar de pluja more information rain snow radar


Visita la nostra xarxa de llocs de meteo:

Template documentation
and downloads

And another site



No particular awareness of the weather is required.    There are no Weather-warnings

Pagina Historial Weather Underground text

Diari Resum Juny 11, 2016 Unitats:  Mètric    Imperial   Tant
« Previous Dia
SegĂźent Dia »
Diari Setmana Mensual Anual Personalitzada
  Maxima: Minima: Media:
Temperatura: -17.8 °C -8.6 °C -5.8 °C
Punt de rosada: -17.8 °C -11.9 °C -10.6 °C
Humitat: Humidity % 46 % 58 %
Wind Speed: 0 km/h 0 km/h 12.1 km/h
RĂ fegues de vent: 0 km/h - -
Vent:- - SE
Pression baro: 0 hPa 34222.3 hPa -
Precipitacions: 0 mm    
Historical Graphs
 
 
Dades de taula per Juny 11, 2016
Temps Temperatura Punt de rosada Pression baro Vent Wind Speed RĂ fegues de vent Humitat Rainfall Rate (Hourly)
-17.8 °C -17.8 °C 0 hPa Calm     Humidity % 0 mm
00:03 -6.2 °C -11.9 °C 34256.2 hPa East 6.8 km/h 11.6 km/h 52 % 0 mm
00:05 -7.6 °C -11.6 °C 34256.2 hPa Calm     63 % 0 mm
00:15 -7.3 °C -11.6 °C 34256.2 hPa Calm     61 % 0 mm
00:25 -7.2 °C -11.6 °C 34256.2 hPa Calm     60 % 0 mm
00:35 -7.2 °C -11.6 °C 34256.2 hPa Calm     60 % 0 mm
00:45 -7.2 °C -11.5 °C 34256.2 hPa Calm     61 % 0 mm
00:55 -7.3 °C -11.4 °C 34256.2 hPa Calm     62 % 0 mm
01:05 -7.3 °C -11.4 °C 34256.2 hPa Calm     62 % 0 mm
01:15 -7.4 °C -11.5 °C 34256.2 hPa Calm     62 % 0 mm
01:25 -7.4 °C -11.5 °C 34256.2 hPa Calm     62 % 0 mm
01:35 -7.4 °C -11.4 °C 34256.2 hPa Calm     63 % 0 mm
01:45 -7.4 °C -11.4 °C 34222.3 hPa Calm     63 % 0 mm
01:55 -7.4 °C -11.3 °C 34222.3 hPa Calm     64 % 0 mm
02:15 -7.4 °C -11.3 °C 34256.2 hPa Calm     64 % 0 mm
02:25 -7.4 °C -11.4 °C 34256.2 hPa Calm     63 % 0 mm
02:35 -7.4 °C -11.4 °C 34256.2 hPa Calm     63 % 0 mm
02:45 -7.3 °C -11.3 °C 34256.2 hPa Calm     63 % 0 mm
02:55 -7.2 °C -11.2 °C 34256.2 hPa Calm     63 % 0 mm
03:20 -7.2 °C -11.2 °C 34256.2 hPa Calm   5.1 km/h 63 % 0 mm
03:30 -7.2 °C -11.2 °C 34256.2 hPa SW 2.6 km/h 2.6 km/h 63 % 0 mm
03:40 -7.1 °C -11.1 °C 34256.2 hPa SSW 5.1 km/h 5.1 km/h 63 % 0 mm
03:50 -6.9 °C -10.9 °C 34256.2 hPa South 2.6 km/h 7.7 km/h 63 % 0 mm
04:10 -6.4 °C -10.8 °C 34256.2 hPa East 7.7 km/h 7.7 km/h 61 % 0 mm
04:20 -6.3 °C -10.7 °C 34256.2 hPa East 7.7 km/h 10.3 km/h 61 % 0 mm
04:30 -6.2 °C -10.7 °C 34256.2 hPa ENE 5.1 km/h 15.6 km/h 60 % 0 mm
04:40 -6.3 °C -10.7 °C 34256.2 hPa NE 12.9 km/h 12.9 km/h 61 % 0 mm
04:50 -6.6 °C -10.7 °C 34256.2 hPa NE 7.7 km/h 10.3 km/h 63 % 0 mm
05:00 -6.6 °C -10.4 °C 34256.2 hPa NE 5.1 km/h 10.3 km/h 64 % 0 mm
05:10 -6.3 °C -10.1 °C 34256.2 hPa NE 5.1 km/h 7.7 km/h 65 % 0 mm
05:20 -6.1 °C -10.1 °C 34256.2 hPa NE 5.1 km/h 10.3 km/h 64 % 0 mm
05:30 -6.2 °C -10.2 °C 34256.2 hPa NNE 7.7 km/h 15.6 km/h 63 % 0 mm
05:40 -6.1 °C -10.1 °C 34256.2 hPa NE 5.1 km/h 7.7 km/h 63 % 0 mm
10:41 -6.1 °C -10.1 °C 34256.2 hPa North 9 km/h 9 km/h 63 % 0 mm
10:46 -6.1 °C -10.1 °C 34293.4 hPa NNE 6 km/h 6 km/h 63 % 0 mm
10:51 -5.9 °C -9.9 °C 34293.4 hPa ENE 6 km/h 6 km/h 63 % 0 mm
10:56 -5.9 °C -9.9 °C 34293.4 hPa NE 6.8 km/h 6.8 km/h 64 % 0 mm
11:01 -5.8 °C -9.8 °C 34293.4 hPa ENE 11.9 km/h 11.9 km/h 64 % 0 mm
11:06 -5.8 °C -9.9 °C 34293.4 hPa ENE 9 km/h 9 km/h 63 % 0 mm
11:11 -5.7 °C -9.8 °C 34293.4 hPa NE 9 km/h 9 km/h 63 % 0 mm
11:16 -5.6 °C -9.8 °C 34256.2 hPa ENE 6 km/h 6 km/h 62 % 0 mm
11:21 -5.4 °C -9.8 °C 34256.2 hPa SE 8.5 km/h 8.5 km/h 61 % 0 mm
11:26 -5.4 °C -9.8 °C 34256.2 hPa ESE 9 km/h 9 km/h 61 % 0 mm
11:31 -5.4 °C -9.8 °C 34293.4 hPa NNE 9 km/h 9 km/h 61 % 0 mm
11:36 -5.4 °C -9.8 °C 34293.4 hPa NE 6.3 km/h 6.3 km/h 61 % 0 mm
11:41 -5.4 °C -9.8 °C 34293.4 hPa ENE 6 km/h 6 km/h 61 % 0 mm
11:46 -5.4 °C -9.8 °C 34293.4 hPa NE 9 km/h 9 km/h 61 % 0 mm
11:51 -5.4 °C -9.8 °C 34293.4 hPa NW 6 km/h 6 km/h 61 % 0 mm
11:56 -5.4 °C -9.8 °C 34293.4 hPa WNW 9 km/h 9 km/h 61 % 0 mm
12:01 -5.4 °C -9.8 °C 34293.4 hPa NE 9 km/h 9 km/h 61 % 0 mm
12:11 -4.1 °C -9.9 °C 34293.4 hPa East 8 km/h 8 km/h 52 % 0 mm
12:16 -4.1 °C -9.9 °C 34256.2 hPa NNE 9 km/h 9 km/h 52 % 0 mm
12:21 -4.1 °C -10.1 °C 34256.2 hPa East 6.3 km/h 6.3 km/h 51 % 0 mm
12:26 -3.9 °C -9.9 °C 34256.2 hPa SE 5.6 km/h 5.6 km/h 51 % 0 mm
12:31 -3.8 °C -9.9 °C 34256.2 hPa East 6.8 km/h 6.8 km/h 50 % 0 mm
12:36 -3.8 °C -10.1 °C 34256.2 hPa South 6 km/h 6 km/h 50 % 0 mm
12:41 -3.9 °C -10.2 °C 34256.2 hPa NW 6 km/h 6 km/h 49 % 0 mm
12:46 -3.8 °C -10.2 °C 34256.2 hPa NNE 9 km/h 9 km/h 49 % 0 mm
12:51 -3.7 °C -10.1 °C 34256.2 hPa SSE 15 km/h 15 km/h 49 % 0 mm
12:56 -3.7 °C -10.2 °C 34256.2 hPa ESE 9 km/h 9 km/h 48 % 0 mm
13:01 -3.7 °C -10.2 °C 34256.2 hPa SE 11.9 km/h 11.9 km/h 48 % 0 mm
13:06 -3.6 °C -10.4 °C 34256.2 hPa ESE 8 km/h 8 km/h 47 % 0 mm
13:16 -3.5 °C -10.1 °C 34256.2 hPa South 6 km/h 6 km/h 48 % 0 mm
13:21 -3.3 °C -9.9 °C 34256.2 hPa WSW 11.9 km/h 11.9 km/h 48 % 0 mm
13:26 -3 °C -9.8 °C 34256.2 hPa SW 11.9 km/h 11.9 km/h 47 % 0 mm
13:31 -3 °C -9.8 °C 34222.3 hPa SE 9.3 km/h 9.3 km/h 47 % 0 mm
13:36 -3.1 °C -10.1 °C 34222.3 hPa East 8.5 km/h 8.5 km/h 46 % 0 mm
13:41 -3.1 °C -10.1 °C 34222.3 hPa South 6 km/h 6 km/h 46 % 0 mm
13:46 -3.1 °C -10.1 °C 34256.2 hPa SE 20.9 km/h 20.9 km/h 46 % 0 mm
13:51 -3.9 °C -10.4 °C 34256.2 hPa SSW 15 km/h 15 km/h 48 % 0 mm
13:56 -3.9 °C -10.1 °C 34256.2 hPa ESE 20.3 km/h 20.3 km/h 50 % 0 mm
14:01 -3.7 °C -10.1 °C 34256.2 hPa SW 15 km/h 15 km/h 49 % 0 mm
14:06 -3.6 °C -9.9 °C 34256.2 hPa WNW 11.9 km/h 11.9 km/h 49 % 0 mm
14:11 -3.4 °C -9.8 °C 34256.2 hPa SSW 8 km/h 8 km/h 49 % 0 mm
14:16 -3.3 °C -9.8 °C 34222.3 hPa East 9 km/h 9 km/h 49 % 0 mm
14:26 -3.5 °C -9.9 °C 34222.3 hPa South 15 km/h 15 km/h 49 % 0 mm
14:31 -3.3 °C -9.7 °C 34222.3 hPa South 15.6 km/h 15.6 km/h 49 % 0 mm
14:36 -3.6 °C -9.9 °C 34222.3 hPa SSE 17.9 km/h 17.9 km/h 49 % 0 mm
14:46 -4.1 °C -10.2 °C 34256.2 hPa ESE 17.9 km/h 17.9 km/h 50 % 0 mm
14:51 -3.9 °C -9.9 °C 34256.2 hPa East 15 km/h 15 km/h 51 % 0 mm
14:56 -4.1 °C -10.1 °C 34256.2 hPa SE 15 km/h 15 km/h 51 % 0 mm
15:01 -4.1 °C -10.1 °C 34256.2 hPa ESE 16.6 km/h 16.6 km/h 51 % 0 mm
15:06 -4 °C -10 °C 34256.2 hPa South 19.2 km/h 19.2 km/h 51 % 0 mm
15:11 -3.8 °C -10.1 °C 34256.2 hPa SW 9 km/h 9 km/h 50 % 0 mm
15:16 -3.9 °C -10.1 °C 34293.4 hPa West 20.9 km/h 20.9 km/h 50 % 0 mm
15:21 -3.8 °C -9.9 °C 34293.4 hPa East 11.9 km/h 11.9 km/h 50 % 0 mm
15:26 -3.6 °C -9.8 °C 34293.4 hPa SW 9 km/h 9 km/h 50 % 0 mm
15:31 -3.4 °C -9.7 °C 34256.2 hPa SSW 15 km/h 15 km/h 50 % 0 mm
15:36 -3.3 °C -9.6 °C 34256.2 hPa ESE 15 km/h 15 km/h 50 % 0 mm
15:41 -3.2 °C -9.4 °C 34256.2 hPa WSW 15.3 km/h 15.3 km/h 50 % 0 mm
15:46 -3.2 °C -9.6 °C 34256.2 hPa ESE 15 km/h 15 km/h 49 % 0 mm
15:51 -3.4 °C -9.8 °C 34256.2 hPa SSW 6.8 km/h 6.8 km/h 49 % 0 mm
15:56 -3.3 °C -9.8 °C 34256.2 hPa ENE 11.9 km/h 11.9 km/h 49 % 0 mm
16:01 -3.4 °C -9.8 °C 34256.2 hPa South 11.9 km/h 11.9 km/h 49 % 0 mm
16:06 -3.4 °C -9.8 °C 34256.2 hPa South 11.9 km/h 11.9 km/h 49 % 0 mm
16:11 -3.1 °C -9.7 °C 34256.2 hPa East 17.9 km/h 17.9 km/h 48 % 0 mm
16:16 -3.4 °C -10.1 °C 34256.2 hPa ESE 20.9 km/h 20.9 km/h 48 % 0 mm
16:26 -3.5 °C -10.2 °C 34256.2 hPa SE 20.9 km/h 20.9 km/h 47 % 0 mm
16:31 -3.4 °C -10.2 °C 34256.2 hPa East 15 km/h 15 km/h 47 % 0 mm
16:36 -3.8 °C -10.4 °C 34256.2 hPa NE 16.1 km/h 16.1 km/h 48 % 0 mm
16:41 -3.8 °C -10.4 °C 34256.2 hPa East 23.8 km/h 23.8 km/h 48 % 0 mm
16:46 -3.9 °C -10.3 °C 34256.2 hPa ENE 26.9 km/h 26.9 km/h 49 % 0 mm
16:51 -3.9 °C -10.3 °C 34256.2 hPa ESE 17.9 km/h 17.9 km/h 49 % 0 mm
16:56 -3.8 °C -10.4 °C 34256.2 hPa East 20.9 km/h 20.9 km/h 48 % 0 mm
17:01 -3.7 °C -10.3 °C 34256.2 hPa SE 15 km/h 15 km/h 48 % 0 mm
17:06 -3.8 °C -10.3 °C 34256.2 hPa ENE 17.9 km/h 17.9 km/h 48 % 0 mm
17:11 -3.8 °C -10.3 °C 34256.2 hPa SSE 15 km/h 15 km/h 48 % 0 mm
17:16 -3.9 °C -10.4 °C 34256.2 hPa ESE 20.9 km/h 20.9 km/h 48 % 0 mm
17:21 -3.8 °C -10.3 °C 34256.2 hPa SW 15 km/h 15 km/h 48 % 0 mm
17:26 -3.7 °C -10.3 °C 34256.2 hPa ESE 26.9 km/h 26.9 km/h 48 % 0 mm
17:31 -3.7 °C -10.3 °C 34222.3 hPa ENE 27.7 km/h 27.7 km/h 48 % 0 mm
17:36 -3.7 °C -10.3 °C 34222.3 hPa SE 32.8 km/h 32.8 km/h 48 % 0 mm
17:41 -3.7 °C -10.3 °C 34222.3 hPa NE 20.9 km/h 20.9 km/h 48 % 0 mm
17:46 -3.4 °C -10.1 °C 34222.3 hPa SE 17.9 km/h 17.9 km/h 48 % 0 mm
17:51 -3.8 °C -10.3 °C 34222.3 hPa NNE 20.9 km/h 20.9 km/h 48 % 0 mm
17:56 -4.1 °C -10.4 °C 34222.3 hPa ENE 38.8 km/h 38.8 km/h 49 % 0 mm
18:01 -4.2 °C -10.4 °C 34222.3 hPa ESE 23.8 km/h 23.8 km/h 50 % 0 mm
18:06 -4.3 °C -10.4 °C 34222.3 hPa ESE 25.4 km/h 25.4 km/h 50 % 0 mm
18:11 -4.2 °C -10.4 °C 34222.3 hPa ENE 20.3 km/h 20.3 km/h 50 % 0 mm
18:16 -4.2 °C -10.4 °C 34256.2 hPa East 26.9 km/h 26.9 km/h 50 % 0 mm
18:21 -4.4 °C -10.4 °C 34256.2 hPa ESE 32.8 km/h 32.8 km/h 51 % 0 mm
18:26 -4.4 °C -10.4 °C 34256.2 hPa ESE 30.6 km/h 30.6 km/h 51 % 0 mm
18:31 -4.4 °C -10.4 °C 34222.3 hPa ESE 35.7 km/h 35.7 km/h 51 % 0 mm
18:41 -4.8 °C -10.7 °C 34222.3 hPa NW 26.9 km/h 26.9 km/h 51 % 0 mm
18:46 -4.7 °C -10.7 °C 34222.3 hPa ESE 31.9 km/h 31.9 km/h 51 % 0 mm
18:51 -4.8 °C -10.8 °C 34222.3 hPa ESE 17.9 km/h 17.9 km/h 51 % 0 mm
18:56 -4.9 °C -10.7 °C 34222.3 hPa ENE 26.9 km/h 26.9 km/h 52 % 0 mm
19:01 -4.9 °C -10.7 °C 34222.3 hPa ESE 17.9 km/h 24.3 km/h 52 % 0 mm
19:07 -5 °C -10.8 °C 34222.3 hPa SE 20.9 km/h 20.9 km/h 52 % 0 mm
19:10 -7.6 °C -11.2 °C 34361.1 hPa East 5.1 km/h 5.1 km/h 66 % 0 mm
19:12 -5.1 °C -10.7 °C 34222.3 hPa ESE 26.9 km/h 26.9 km/h 53 % 0 mm
19:17 -5.2 °C -10.8 °C 34256.2 hPa East 20.9 km/h 20.9 km/h 53 % 0 mm
19:22 -5.2 °C -10.7 °C 34256.2 hPa ENE 20.9 km/h 20.9 km/h 54 % 0 mm
19:27 -5.3 °C -10.7 °C 34256.2 hPa SSW 26.9 km/h 26.9 km/h 54 % 0 mm
19:30 -7.7 °C -11.3 °C 34327.3 hPa NE 5.1 km/h 5.1 km/h 66 % 0 mm
19:32 -5.3 °C -10.7 °C 34256.2 hPa East 23.8 km/h 23.8 km/h 54 % 0 mm
19:37 -5.4 °C -10.8 °C 34256.2 hPa SSE 20.9 km/h 20.9 km/h 54 % 0 mm
19:40 -7.8 °C -11.5 °C 34327.3 hPa NE 5.1 km/h 5.1 km/h 65 % 0 mm
19:43 -5.4 °C -10.9 °C 34256.2 hPa East 17.9 km/h 17.9 km/h 54 % 0 mm
19:48 -5.6 °C -10.9 °C 34256.2 hPa ESE 12.7 km/h 12.7 km/h 54 % 0 mm
19:50 -7.9 °C -11.3 °C 34327.3 hPa NE 5.1 km/h 5.1 km/h 67 % 0 mm
19:53 -5.7 °C -10.9 °C 34256.2 hPa ESE 35.7 km/h 35.7 km/h 55 % 0 mm
20:00 -7.9 °C -11.3 °C 34327.3 hPa NE 5.1 km/h 5.1 km/h 67 % 0 mm
20:03 -5.7 °C -10.8 °C 34256.2 hPa ESE 24.3 km/h 24.3 km/h 56 % 0 mm
20:08 -5.7 °C -10.8 °C 34256.2 hPa ESE 9 km/h 9 km/h 56 % 0 mm
20:10 -7.8 °C -11.2 °C 34327.3 hPa NE 5.1 km/h 5.1 km/h 68 % 0 mm
20:13 -5.8 °C -10.9 °C 34256.2 hPa ENE 15.3 km/h 15.3 km/h 56 % 0 mm
20:18 -5.8 °C -10.9 °C 34222.3 hPa SSW 15.3 km/h 15.3 km/h 56 % 0 mm
20:20 -7.9 °C -11.1 °C 34327.3 hPa NE 5.1 km/h 5.1 km/h 69 % 0 mm
20:23 -5.8 °C -10.9 °C 34222.3 hPa South 6 km/h 6.3 km/h 56 % 0 mm
20:28 -5.8 °C -10.8 °C 34222.3 hPa South 15 km/h 15 km/h 57 % 0 mm
20:30 -7.9 °C -11 °C 34327.3 hPa NE 5.1 km/h 5.1 km/h 70 % 0 mm
20:33 -5.9 °C -10.8 °C 34256.2 hPa ESE 19.2 km/h 19.2 km/h 57 % 0 mm
20:38 -5.9 °C -10.9 °C 34256.2 hPa South 9 km/h 9.3 km/h 57 % 0 mm
20:40 -8.1 °C -11.2 °C 34327.3 hPa NE 5.1 km/h 5.1 km/h 70 % 0 mm
20:43 -6 °C -10.9 °C 34256.2 hPa ESE 15.3 km/h 15.6 km/h 57 % 0 mm
20:48 -6.1 °C -11 °C 34256.2 hPa ESE 15.3 km/h 15.6 km/h 57 % 0 mm
20:50 -8.2 °C -11.2 °C 34327.3 hPa NE 2.6 km/h 5.1 km/h 71 % 0 mm
20:53 -6.2 °C -10.9 °C 34256.2 hPa ESE 15.3 km/h 15.6 km/h 58 % 0 mm
20:58 -6.2 °C -11 °C 34256.2 hPa ESE 15.3 km/h 15.6 km/h 58 % 0 mm
21:00 -8.2 °C -11.2 °C 34327.3 hPa SW 2.6 km/h   71 % 0 mm
21:03 -6.3 °C -10.9 °C 34256.2 hPa ESE 15.3 km/h 15.6 km/h 59 % 0 mm
21:08 -6.4 °C -11 °C 34256.2 hPa ESE 15.3 km/h 15.6 km/h 59 % 0 mm
21:10 -8.2 °C -11.2 °C 34327.3 hPa SW 2.6 km/h   71 % 0 mm
21:13 -6.5 °C -11.1 °C 34256.2 hPa ESE 15.3 km/h 15.6 km/h 59 % 0 mm
21:18 -6.5 °C -11.1 °C 34293.4 hPa ESE 15.3 km/h 15.6 km/h 59 % 0 mm
21:20 -8.2 °C -11.1 °C 34327.3 hPa SW 2.6 km/h   72 % 0 mm
21:23 -6.6 °C -11 °C 34293.4 hPa ESE 15.3 km/h 15.6 km/h 60 % 0 mm
21:28 -6.6 °C -11.1 °C 34293.4 hPa ESE 15.3 km/h 15.6 km/h 60 % 0 mm
21:30 -8.5 °C -11.1 °C 34327.3 hPa SW 2.6 km/h   74 % 0 mm
21:33 -6.7 °C -11 °C 34293.4 hPa ESE 15.3 km/h 15.6 km/h 61 % 0 mm
21:40 -8.6 °C -11.2 °C 34327.3 hPa SW 2.6 km/h   74 % 0 mm
21:43 -6.7 °C -10.9 °C 34293.4 hPa ESE 15.3 km/h 15.6 km/h 62 % 0 mm
21:48 -6.8 °C -10.9 °C 34327.3 hPa ESE 15.3 km/h 15.6 km/h 62 % 0 mm
21:50 -8.6 °C -11.2 °C 34327.3 hPa SW 2.6 km/h   74 % 0 mm
21:53 -6.8 °C -11 °C 34327.3 hPa ESE 15.3 km/h 15.6 km/h 62 % 0 mm
21:58 -6.9 °C -10.9 °C 34327.3 hPa ESE 15.3 km/h 15.6 km/h 63 % 0 mm
22:00 -8.6 °C -11.1 °C 34293.4 hPa SW 2.6 km/h   75 % 0 mm
22:03 -6.9 °C -10.9 °C 34327.3 hPa ESE 15.3 km/h 15.6 km/h 63 % 0 mm
22:08 -6.9 °C -10.9 °C 34327.3 hPa ESE 15.3 km/h 15.6 km/h 63 % 0 mm
22:10 -8.6 °C -11.1 °C 34293.4 hPa SW 2.6 km/h   75 % 0 mm
22:13 -7 °C -11 °C 34327.3 hPa ESE 15.3 km/h 15.6 km/h 63 % 0 mm
22:18 -7 °C -11 °C 34327.3 hPa ESE 15.3 km/h 15.6 km/h 63 % 0 mm
22:20 -8.6 °C -11 °C 34327.3 hPa SW 2.6 km/h   75 % 0 mm
22:23 -7 °C -11 °C 34327.3 hPa ESE 15.3 km/h 15.6 km/h 63 % 0 mm
22:30 -8.6 °C -10.9 °C 34327.3 hPa SW 2.6 km/h   76 % 0 mm
22:33 -7 °C -11 °C 34327.3 hPa ESE 15.3 km/h 15.6 km/h 63 % 0 mm
22:39 -7.1 °C -11.1 °C 34327.3 hPa ESE 15.3 km/h 15.6 km/h 63 % 0 mm
22:40 -8.5 °C -10.9 °C 34327.3 hPa SW 2.6 km/h   76 % 0 mm
22:44 -7.1 °C -11.1 °C 34327.3 hPa ESE 15.3 km/h 15.6 km/h 63 % 0 mm
22:49 -7.1 °C -11.1 °C 34327.3 hPa ESE 15.3 km/h 15.6 km/h 63 % 0 mm
22:50 -8.4 °C -10.9 °C 34327.3 hPa SW 2.6 km/h   75 % 0 mm
22:54 -7.1 °C -11.1 °C 34327.3 hPa ESE 15.3 km/h 15.6 km/h 63 % 0 mm
22:59 -7.2 °C -11.2 °C 34327.3 hPa ESE 15.3 km/h 15.6 km/h 63 % 0 mm
23:00 -8.4 °C -10.9 °C 34327.3 hPa SW 2.6 km/h   75 % 0 mm
23:04 -7.2 °C -11.2 °C 34327.3 hPa ESE 15.3 km/h 15.6 km/h 63 % 0 mm
23:09 -7.3 °C -11.2 °C 34327.3 hPa ESE 15.3 km/h 15.6 km/h 64 % 0 mm
23:10 -8.3 °C -11 °C 34327.3 hPa SW 2.6 km/h   73 % 0 mm
23:14 -7.3 °C -11 °C 34327.3 hPa ESE 15.3 km/h 15.6 km/h 65 % 0 mm
23:19 -7.3 °C -11 °C 34327.3 hPa ESE 15.3 km/h 15.6 km/h 65 % 0 mm
23:20 -8.3 °C -10.9 °C 34327.3 hPa SW 2.6 km/h   74 % 0 mm
23:24 -7.3 °C -11.1 °C 34327.3 hPa ESE 15.3 km/h 15.6 km/h 65 % 0 mm
23:29 -7.3 °C -11.1 °C 34361.1 hPa ESE 15.3 km/h 15.6 km/h 65 % 0 mm
23:30 -8.2 °C -10.9 °C 34327.3 hPa SW 2.6 km/h   73 % 0 mm
23:34 -7.3 °C -11.1 °C 34361.1 hPa ESE 15.3 km/h 15.6 km/h 65 % 0 mm
23:39 -7.3 °C -11.1 °C 34361.1 hPa ESE 15.3 km/h 15.6 km/h 65 % 0 mm
23:40 -8.2 °C -10.9 °C 34327.3 hPa SW 2.6 km/h   73 % 0 mm
23:44 -7.3 °C -11.1 °C 34327.3 hPa ESE 15.3 km/h 15.6 km/h 65 % 0 mm
23:49 -7.3 °C -11.1 °C 34327.3 hPa ESE 15.3 km/h 15.6 km/h 65 % 0 mm
23:50 -8.2 °C -10.9 °C 34327.3 hPa SW 2.6 km/h   73 % 0 mm
23:54 -7.3 °C -11.1 °C 34327.3 hPa ESE 15.3 km/h 15.6 km/h 65 % 0 mm
23:59 -7.5 °C -11.1 °C 34361.1 hPa ESE 15.3 km/h 15.6 km/h 66 % 0 mm
Meteo Sesrovires
Elogis d' Weather Underground - 3.5 mb

Guio original per  Jim McMurry - jmcmurry@mwt.net Adaptat per a la plantilla per  Wim van der Kuil - Leuven-Template.eu

Trobareu la nostra informacio del temps tambe a:

Weather Underground

AWEKAS